createdAt,value
2018-06-07T00:00:15.507Z,25.17
2018-06-07T00:02:43.704Z,25.33
2018-06-07T00:05:11.647Z,26.63
2018-06-07T00:07:39.829Z,26.30
2018-06-07T00:10:07.999Z,28.97
2018-06-07T00:12:36.188Z,27.70
2018-06-07T00:15:04.399Z,25.27
2018-06-07T00:17:32.581Z,27.20
2018-06-07T00:20:00.772Z,28.37
2018-06-07T00:22:28.952Z,30.23
2018-06-07T00:24:57.137Z,26.00
2018-06-07T00:27:25.320Z,29.90
2018-06-07T00:29:53.514Z,28.90
2018-06-07T00:32:21.455Z,27.40
2018-06-07T00:34:49.638Z,28.20
2018-06-07T00:37:17.814Z,29.37
2018-06-07T00:39:45.988Z,28.70
2018-06-07T00:42:14.164Z,28.30
2018-06-07T00:44:42.332Z,25.40
2018-06-07T00:47:10.513Z,28.70
2018-06-07T00:49:38.684Z,28.17
2018-06-07T00:52:06.839Z,27.63
2018-06-07T00:54:35.019Z,30.17
2018-06-07T00:57:09.477Z,29.33
2018-06-07T00:59:37.664Z,29.40
2018-06-07T01:02:05.845Z,29.40
2018-06-07T01:04:34.019Z,28.80
2018-06-07T01:07:02.227Z,28.40
2018-06-07T01:09:30.392Z,32.20
2018-06-07T01:11:58.590Z,32.37
2018-06-07T01:14:26.763Z,29.67
2018-06-07T01:16:54.957Z,29.07
2018-06-07T01:19:23.164Z,32.40
2018-06-07T01:21:51.419Z,31.07
2018-06-07T01:24:19.636Z,30.83
2018-06-07T01:26:47.803Z,30.77
2018-06-07T01:29:27.226Z,30.50
2018-06-07T01:34:11.866Z,31.13
2018-06-07T01:36:41.268Z,30.30
2018-06-07T01:39:11.185Z,30.77
2018-06-07T01:41:39.360Z,32.37
2018-06-07T01:44:07.527Z,33.23
2018-06-07T01:46:35.721Z,30.10
2018-06-07T01:49:03.901Z,33.67
2018-06-07T01:51:32.076Z,30.57
2018-06-07T01:54:00.268Z,33.30
2018-06-07T01:56:28.440Z,30.83
2018-06-07T01:58:56.619Z,33.90
2018-06-07T02:01:24.801Z,31.80
2018-06-07T02:03:53.584Z,33.37
2018-06-07T02:06:21.759Z,32.77
2018-06-07T02:08:49.928Z,33.80
2018-06-07T02:11:18.107Z,32.53
2018-06-07T02:13:46.300Z,32.10
2018-06-07T02:16:14.481Z,32.07
2018-06-07T02:18:42.656Z,33.87
2018-06-07T02:21:10.871Z,32.17
2018-06-07T02:23:39.043Z,31.30
2018-06-07T02:26:07.213Z,33.10
2018-06-07T02:28:35.391Z,32.50
2018-06-07T02:31:03.666Z,32.70
2018-06-07T02:33:31.848Z,33.10
2018-06-07T02:36:00.031Z,31.07
2018-06-07T02:38:28.199Z,33.60
2018-06-07T02:40:56.375Z,33.27
2018-06-07T02:43:24.565Z,34.63
2018-06-07T02:45:52.736Z,31.63
2018-06-07T02:48:20.925Z,35.83
2018-06-07T02:50:49.091Z,31.33
2018-06-07T02:53:17.280Z,30.70
2018-06-07T02:55:45.211Z,33.70
2018-06-07T02:58:13.391Z,32.43
2018-06-07T03:00:41.572Z,33.00
2018-06-07T03:03:09.748Z,31.37
2018-06-07T03:05:37.932Z,34.67
2018-06-07T03:08:06.119Z,33.93
2018-06-07T03:10:34.304Z,34.50
2018-06-07T03:13:02.512Z,30.70
2018-06-07T03:15:30.685Z,32.93
2018-06-07T03:17:58.861Z,33.57
2018-06-07T03:20:27.044Z,30.50
2018-06-07T03:22:55.287Z,34.00
2018-06-07T03:25:23.463Z,33.67
2018-06-07T03:27:51.649Z,32.57
2018-06-07T03:30:19.853Z,34.30
2018-06-07T03:32:48.016Z,33.20
2018-06-07T03:35:16.196Z,32.60
2018-06-07T03:37:44.368Z,32.17
2018-06-07T03:40:12.554Z,32.53
2018-06-07T03:42:40.724Z,36.03
2018-06-07T03:45:08.902Z,34.30
2018-06-07T03:47:37.088Z,30.43
2018-06-07T03:50:05.284Z,31.30
2018-06-07T03:52:33.454Z,34.17
2018-06-07T03:55:01.637Z,35.27
2018-06-07T03:57:29.572Z,33.90
2018-06-07T03:59:57.780Z,33.70
2018-06-07T04:02:25.968Z,36.80
2018-06-07T04:04:54.159Z,33.50
2018-06-07T04:07:22.317Z,31.40
2018-06-07T04:09:50.800Z,36.30
2018-06-07T04:12:18.969Z,33.90
2018-06-07T04:14:47.235Z,34.10
2018-06-07T04:17:15.421Z,35.33
2018-06-07T04:19:43.604Z,32.37
2018-06-07T04:22:11.847Z,35.87
2018-06-07T04:24:40.057Z,33.40
2018-06-07T04:27:08.227Z,34.43
2018-06-07T04:29:36.395Z,33.00
2018-06-07T04:32:04.586Z,30.80
2018-06-07T04:34:32.748Z,32.90
2018-06-07T04:37:00.920Z,33.60
2018-06-07T04:39:29.151Z,32.30
2018-06-07T04:41:58.297Z,32.80
2018-06-07T04:44:26.467Z,29.20
2018-06-07T04:46:54.645Z,31.60
2018-06-07T04:49:22.813Z,34.07
2018-06-07T04:51:50.979Z,31.97
2018-06-07T04:54:19.146Z,30.77
2018-06-07T04:56:47.318Z,35.97
2018-06-07T04:59:15.507Z,30.70
2018-06-07T05:01:47.018Z,29.60
2018-06-07T05:04:15.190Z,31.90
2018-06-07T05:06:43.362Z,31.30
2018-06-07T05:09:11.536Z,31.63
2018-06-07T05:11:39.715Z,30.23
2018-06-07T05:14:07.669Z,27.47
2018-06-07T05:16:35.856Z,27.20
2018-06-07T05:19:04.072Z,28.67
2018-06-07T05:21:32.267Z,28.40
2018-06-07T05:24:00.436Z,28.87
2018-06-07T05:26:28.618Z,28.93
2018-06-07T05:28:57.095Z,26.60
2018-06-07T05:31:25.282Z,27.33
2018-06-07T05:33:53.483Z,31.17
2018-06-07T05:36:21.660Z,26.17
2018-06-07T05:38:49.921Z,27.57
2018-06-07T05:41:18.052Z,28.50
2018-06-07T05:43:46.306Z,25.47
2018-06-07T05:46:14.479Z,29.23
2018-06-07T05:48:42.671Z,27.43
2018-06-07T05:51:10.896Z,27.60
2018-06-07T05:53:38.851Z,26.77
2018-06-07T05:56:07.032Z,27.60
2018-06-07T05:58:35.207Z,26.37
2018-06-07T06:01:03.201Z,23.70
2018-06-07T06:03:31.150Z,23.67
2018-06-07T06:05:59.104Z,21.77
2018-06-07T06:08:27.307Z,19.63
2018-06-07T06:10:55.517Z,20.07
2018-06-07T06:13:23.731Z,21.10
2018-06-07T06:15:51.749Z,19.07
2018-06-07T06:18:19.943Z,17.97
2018-06-07T06:20:48.113Z,17.70
2018-06-07T06:23:16.449Z,18.70
2018-06-07T06:25:44.632Z,17.63
2018-06-07T06:28:12.820Z,18.30
2018-06-07T06:30:41.000Z,18.10
2018-06-07T06:33:09.183Z,16.33
2018-06-07T06:35:37.365Z,15.87
2018-06-07T06:38:37.732Z,15.70
2018-06-07T06:41:06.047Z,14.47
2018-06-07T06:43:34.224Z,16.00
2018-06-07T06:46:02.396Z,16.23
2018-06-07T06:48:30.591Z,14.50
2018-06-07T06:50:58.796Z,13.93
2018-06-07T06:53:26.742Z,13.53
2018-06-07T06:55:54.980Z,12.60
2018-06-07T06:58:23.161Z,15.00
2018-06-07T07:00:51.352Z,15.10
2018-06-07T07:03:19.533Z,14.10
2018-06-07T07:05:47.715Z,14.17
2018-06-07T07:08:15.887Z,14.90
2018-06-07T07:10:44.071Z,15.60
2018-06-07T07:13:12.268Z,15.13
2018-06-07T07:15:40.427Z,16.63
2018-06-07T07:18:08.373Z,15.77
2018-06-07T07:20:36.560Z,17.10
2018-06-07T07:23:04.752Z,16.47
2018-06-07T07:25:32.932Z,16.87
2018-06-07T07:28:01.095Z,15.87
2018-06-07T07:30:29.036Z,17.80
2018-06-07T07:32:57.224Z,17.70
2018-06-07T07:35:25.406Z,17.03
2018-06-07T07:37:54.485Z,17.70
2018-06-07T07:40:22.661Z,19.30
2018-06-07T07:42:50.836Z,19.97
2018-06-07T07:45:19.025Z,19.83
2018-06-07T07:47:46.966Z,19.70
2018-06-07T07:50:15.151Z,21.30
2018-06-07T07:52:43.358Z,21.00
2018-06-07T07:55:11.616Z,20.27
2018-06-07T07:57:39.542Z,20.90
2018-06-07T08:00:08.025Z,21.87
2018-06-07T08:02:36.199Z,23.60
2018-06-07T08:05:04.612Z,20.33
2018-06-07T08:07:32.558Z,22.53
2018-06-07T08:10:00.719Z,22.53
2018-06-07T08:12:28.916Z,22.40
2018-06-07T08:14:58.048Z,21.17
2018-06-07T08:17:26.220Z,22.67
2018-06-07T08:19:54.980Z,21.90
2018-06-07T08:22:22.902Z,20.63
2018-06-07T08:24:51.095Z,21.67
2018-06-07T08:27:19.303Z,21.83
2018-06-07T08:29:47.281Z,21.27
2018-06-07T08:32:15.452Z,21.60
2018-06-07T08:34:43.639Z,22.40
2018-06-07T08:37:11.823Z,20.53
2018-06-07T08:39:40.077Z,22.20
2018-06-07T08:42:08.175Z,21.13
2018-06-07T08:44:36.380Z,22.87
2018-06-07T08:47:04.544Z,20.63
2018-06-07T08:49:32.711Z,21.00
2018-06-07T08:52:00.908Z,21.67
2018-06-07T08:54:29.101Z,20.40
2018-06-07T08:56:57.035Z,20.20
2018-06-07T08:59:25.212Z,20.23
2018-06-07T09:01:53.872Z,19.80
2018-06-07T09:04:22.061Z,21.80
2018-06-07T09:06:50.240Z,18.50
2018-06-07T09:09:18.428Z,19.67
2018-06-07T09:11:46.592Z,18.80
2018-06-07T09:14:14.781Z,22.10
2018-06-07T09:16:42.959Z,19.13
2018-06-07T09:19:11.245Z,17.60
2018-06-07T09:21:39.187Z,19.17
2018-06-07T09:24:07.378Z,18.00
2018-06-07T09:26:35.555Z,16.30
2018-06-07T09:29:03.746Z,18.47
2018-06-07T09:31:31.923Z,17.87
2018-06-07T09:34:00.104Z,20.30
2018-06-07T09:36:28.279Z,19.23
2018-06-07T09:38:56.455Z,19.60
2018-06-07T09:41:24.743Z,19.83
2018-06-07T09:43:52.940Z,19.03
2018-06-07T09:46:21.121Z,18.30
2018-06-07T09:48:49.292Z,17.40
2018-06-07T09:51:17.475Z,20.97
2018-06-07T09:53:45.652Z,21.00
2018-06-07T09:56:13.848Z,17.33
2018-06-07T09:58:41.809Z,21.53
2018-06-07T10:01:10.073Z,18.50
2018-06-07T10:03:38.268Z,18.13
2018-06-07T10:06:06.199Z,16.33
2018-06-07T10:08:34.394Z,16.57
2018-06-07T10:11:02.572Z,18.27
2018-06-07T10:13:30.767Z,13.33
2018-06-07T10:15:58.707Z,10.73
2018-06-07T10:18:26.889Z,11.20
2018-06-07T10:20:56.044Z,9.40
2018-06-07T10:23:24.220Z,9.30
2018-06-07T10:25:52.400Z,9.53
2018-06-07T10:28:20.600Z,11.77
2018-06-07T10:30:48.817Z,11.93
2018-06-07T10:33:16.997Z,10.27
2018-06-07T10:35:45.184Z,9.20
2018-06-07T10:38:14.388Z,8.10
2018-06-07T10:40:42.560Z,9.90
2018-06-07T10:43:10.748Z,9.57
2018-06-07T10:45:38.922Z,9.03
2018-06-07T10:48:07.095Z,6.73
2018-06-07T10:50:35.273Z,6.33
2018-06-07T10:53:03.440Z,8.00
2018-06-07T10:55:31.632Z,8.37
2018-06-07T10:57:59.795Z,8.33
2018-06-07T11:00:27.980Z,7.90
2018-06-07T11:02:56.201Z,8.73
2018-06-07T11:05:24.381Z,8.33
2018-06-07T11:07:52.553Z,10.03
2018-06-07T11:10:20.756Z,10.23
2018-06-07T11:12:49.004Z,8.50
2018-06-07T11:15:17.180Z,8.87
2018-06-07T11:17:45.371Z,9.63
2018-06-07T11:20:13.561Z,9.43
2018-06-07T11:22:41.756Z,9.40
2018-06-07T11:25:09.692Z,9.40
2018-06-07T11:27:37.880Z,8.60
2018-06-07T11:30:06.076Z,9.53
2018-06-07T11:32:34.011Z,10.17
2018-06-07T11:35:02.194Z,8.53
2018-06-07T11:37:30.382Z,8.27
2018-06-07T11:39:59.518Z,8.90
2018-06-07T11:42:27.676Z,8.13
2018-06-07T11:44:55.842Z,7.77
2018-06-07T11:47:24.015Z,9.30
2018-06-07T11:49:51.964Z,8.23
2018-06-07T11:52:19.903Z,7.87
2018-06-07T11:54:48.193Z,9.40
2018-06-07T11:57:16.355Z,11.60
2018-06-07T11:59:44.535Z,8.33
2018-06-07T12:02:12.704Z,8.90
2018-06-07T12:04:40.891Z,8.30
2018-06-07T12:07:09.089Z,10.40
2018-06-07T12:09:37.031Z,9.83
2018-06-07T12:12:05.221Z,8.13
2018-06-07T12:14:33.151Z,8.27
2018-06-07T12:17:01.312Z,9.07
2018-06-07T12:19:29.506Z,10.03
2018-06-07T12:21:57.720Z,8.10
2018-06-07T12:24:25.664Z,10.17
2018-06-07T12:26:53.832Z,9.13
2018-06-07T12:29:21.993Z,7.93
2018-06-07T12:31:50.180Z,8.10
2018-06-07T12:34:18.355Z,8.37
2018-06-07T12:36:46.531Z,7.33
2018-06-07T12:39:14.693Z,11.50
2018-06-07T12:41:42.869Z,14.03
2018-06-07T12:44:11.052Z,15.90
2018-06-07T12:46:39.309Z,16.30
2018-06-07T12:49:07.412Z,16.33
2018-06-07T12:51:35.372Z,18.17
2018-06-07T12:54:03.570Z,17.47
2018-06-07T12:56:31.763Z,17.60
2018-06-07T12:59:00.780Z,15.80
2018-06-07T13:01:28.957Z,14.70
2018-06-07T13:03:57.121Z,13.77
2018-06-07T13:06:25.308Z,12.23
2018-06-07T13:08:53.476Z,14.93
2018-06-07T13:11:21.675Z,14.73
2018-06-07T13:13:49.927Z,17.87
2018-06-07T13:16:18.104Z,17.73
2018-06-07T13:18:46.300Z,17.20
2018-06-07T13:21:14.473Z,17.30
2018-06-07T13:23:42.640Z,14.57
2018-06-07T13:26:11.343Z,17.60
2018-06-07T13:28:40.011Z,18.63
2018-06-07T13:31:08.184Z,16.10
2018-06-07T13:33:36.384Z,16.53
2018-06-07T13:36:04.320Z,16.33
2018-06-07T13:38:32.483Z,15.43
2018-06-07T13:41:00.680Z,15.57
2018-06-07T13:43:28.852Z,17.47
2018-06-07T13:45:57.040Z,14.40
2018-06-07T13:48:24.987Z,14.80
2018-06-07T13:50:53.231Z,15.77
2018-06-07T13:53:21.387Z,15.80
2018-06-07T13:55:49.628Z,16.47
2018-06-07T13:58:17.572Z,16.53
2018-06-07T14:00:45.763Z,15.03
2018-06-07T14:03:13.955Z,15.37
2018-06-07T14:05:42.159Z,16.73
2018-06-07T14:08:10.335Z,16.50
2018-06-07T14:10:38.525Z,14.57
2018-06-07T14:13:06.721Z,13.90
2018-06-07T14:15:34.905Z,13.30
2018-06-07T14:18:03.076Z,14.77
2018-06-07T14:20:31.251Z,16.77
2018-06-07T14:23:00.407Z,13.90
2018-06-07T14:25:28.597Z,14.90
2018-06-07T14:27:56.818Z,13.47
2018-06-07T14:30:24.973Z,15.27
2018-06-07T14:32:53.152Z,13.50
2018-06-07T14:35:21.111Z,10.70
2018-06-07T14:37:49.321Z,12.63
2018-06-07T14:40:17.516Z,11.17
2018-06-07T14:42:45.704Z,12.33
2018-06-07T14:45:13.919Z,12.47
2018-06-07T14:47:41.860Z,12.50
2018-06-07T14:50:10.057Z,11.27
2018-06-07T14:52:38.016Z,12.83
2018-06-07T14:55:06.203Z,14.50
2018-06-07T14:57:34.152Z,14.10
2018-06-07T15:00:02.332Z,11.57
2018-06-07T15:02:30.512Z,15.27
2018-06-07T15:04:59.580Z,14.70
2018-06-07T15:07:27.755Z,11.93
2018-06-07T15:09:56.259Z,12.73
2018-06-07T15:12:24.423Z,14.00
2018-06-07T15:15:23.890Z,13.00
2018-06-07T15:17:52.095Z,13.20
2018-06-07T15:20:20.284Z,11.80
2018-06-07T15:22:48.552Z,14.50
2018-06-07T15:25:16.747Z,13.67
2018-06-07T15:27:44.684Z,15.57
2018-06-07T15:30:12.931Z,13.00
2018-06-07T15:32:41.120Z,13.70
2018-06-07T15:35:09.311Z,12.13
2018-06-07T15:37:37.528Z,14.33
2018-06-07T15:40:05.704Z,15.00
2018-06-07T15:42:33.937Z,13.10
2018-06-07T15:45:02.172Z,13.40
2018-06-07T15:47:30.349Z,12.47
2018-06-07T15:49:58.527Z,14.17
2018-06-07T15:52:26.732Z,10.30
2018-06-07T15:54:54.921Z,8.60
2018-06-07T15:57:22.950Z,9.73
2018-06-07T15:59:51.153Z,9.30
2018-06-07T16:02:19.340Z,8.37
2018-06-07T16:04:47.284Z,9.10
2018-06-07T16:07:15.514Z,8.87
2018-06-07T16:09:43.814Z,8.80
2018-06-07T16:12:11.981Z,9.30
2018-06-07T16:14:40.211Z,11.13
2018-06-07T16:17:08.147Z,9.43
2018-06-07T16:19:36.347Z,9.70
2018-06-07T16:22:04.307Z,9.10
2018-06-07T16:24:32.484Z,9.60
2018-06-07T16:27:00.694Z,10.30
2018-06-07T16:29:28.888Z,10.53
2018-06-07T16:31:57.059Z,10.77
2018-06-07T16:34:25.250Z,9.67
2018-06-07T16:36:53.440Z,13.70
2018-06-07T16:39:21.670Z,11.93
2018-06-07T16:41:50.311Z,12.20
2018-06-07T16:44:18.494Z,12.50
2018-06-07T16:46:46.723Z,12.30
2018-06-07T16:49:14.894Z,12.27
2018-06-07T16:51:43.057Z,12.70
2018-06-07T16:54:11.248Z,14.03
2018-06-07T16:56:39.432Z,12.37
2018-06-07T16:59:07.617Z,13.60
2018-06-07T17:01:35.845Z,12.93
2018-06-07T17:04:04.023Z,11.87
2018-06-07T17:06:32.244Z,14.20
2018-06-07T17:09:00.430Z,14.07
2018-06-07T17:11:28.415Z,14.53
2018-06-07T17:13:56.608Z,13.70
2018-06-07T17:16:24.813Z,14.27
2018-06-07T17:18:52.955Z,14.70
2018-06-07T17:21:21.128Z,14.20
2018-06-07T17:23:49.340Z,14.40
2018-06-07T17:26:17.521Z,14.33
2018-06-07T17:28:45.745Z,14.73
2018-06-07T17:31:13.956Z,13.07
2018-06-07T17:33:42.200Z,14.10
2018-06-07T17:36:10.367Z,15.90
2018-06-07T17:38:38.556Z,14.47
2018-06-07T17:41:06.749Z,15.83
2018-06-07T17:43:34.942Z,15.63
2018-06-07T17:46:03.148Z,16.33
2018-06-07T17:48:31.319Z,15.00
2018-06-07T17:50:59.271Z,15.30
2018-06-07T17:53:27.227Z,14.93
2018-06-07T17:55:56.636Z,16.60
2018-06-07T17:58:24.833Z,16.37
2018-06-07T18:00:53.002Z,16.30
2018-06-07T18:03:20.935Z,15.87
2018-06-07T18:05:49.148Z,16.20
2018-06-07T18:08:17.319Z,14.80
2018-06-07T18:10:45.507Z,14.40
2018-06-07T18:13:13.737Z,15.60
2018-06-07T18:15:41.959Z,16.27
2018-06-07T18:18:10.161Z,15.90
2018-06-07T18:20:38.397Z,16.03
2018-06-07T18:23:06.532Z,17.73
2018-06-07T18:25:34.737Z,15.67
2018-06-07T18:28:02.671Z,15.37
2018-06-07T18:30:30.876Z,15.93
2018-06-07T18:32:58.823Z,16.90
2018-06-07T18:35:27.275Z,15.97
2018-06-07T18:37:55.456Z,16.30
2018-06-07T18:40:23.652Z,13.57
2018-06-07T18:42:52.725Z,14.43
2018-06-07T18:45:20.927Z,15.47
2018-06-07T18:47:49.104Z,13.40
2018-06-07T18:50:17.064Z,13.07
2018-06-07T18:52:45.250Z,13.80
2018-06-07T18:55:13.192Z,14.30
2018-06-07T18:57:41.368Z,13.60
2018-06-07T19:00:09.544Z,14.87
2018-06-07T19:02:37.728Z,14.70
2018-06-07T19:05:05.911Z,14.27
2018-06-07T19:07:34.103Z,14.77
2018-06-07T19:10:05.880Z,14.20
2018-06-07T19:12:34.052Z,17.70
2018-06-07T19:15:06.840Z,16.23
2018-06-07T19:17:35.033Z,16.23
2018-06-07T19:20:08.797Z,16.23
2018-06-07T19:22:36.982Z,17.10
2018-06-07T19:25:10.605Z,18.40
2018-06-07T19:27:38.797Z,19.43
2018-06-07T19:30:07.001Z,22.27
2018-06-07T19:32:40.767Z,21.37
2018-06-07T19:35:10.423Z,21.13
2018-06-07T19:37:38.627Z,22.90
2018-06-07T19:40:12.216Z,23.40
2018-06-07T19:42:40.428Z,24.33
2018-06-07T19:45:08.632Z,23.57
2018-06-07T19:47:36.819Z,23.70
2018-06-07T19:50:05.355Z,22.57
2018-06-07T19:52:33.524Z,22.43
2018-06-07T19:55:01.701Z,25.10
2018-06-07T19:57:29.891Z,24.47
2018-06-07T19:59:58.087Z,25.23
2018-06-07T20:02:26.275Z,24.67
2018-06-07T20:04:54.499Z,26.00
2018-06-07T20:07:22.695Z,23.13
2018-06-07T20:09:50.889Z,24.30
2018-06-07T20:12:19.069Z,25.00
2018-06-07T20:14:47.253Z,26.70
2018-06-07T20:17:15.482Z,28.80
2018-06-07T20:19:43.768Z,25.77
2018-06-07T20:22:12.016Z,28.67
2018-06-07T20:24:40.203Z,28.30
2018-06-07T20:27:08.379Z,28.53
2018-06-07T20:29:36.584Z,29.40
2018-06-07T20:32:04.814Z,28.70
2018-06-07T20:34:33.006Z,29.40
2018-06-07T20:37:01.176Z,25.77
2018-06-07T20:39:29.416Z,27.37
2018-06-07T20:41:57.904Z,29.30
2018-06-07T20:44:26.124Z,30.17
2018-06-07T20:46:54.292Z,27.30
2018-06-07T20:49:22.457Z,28.27
2018-06-07T20:51:50.688Z,27.97
2018-06-07T20:54:18.909Z,27.60
2018-06-07T20:56:47.095Z,28.17
2018-06-07T20:59:15.264Z,28.80
2018-06-07T21:01:43.424Z,29.90
2018-06-07T21:04:11.620Z,29.90
2018-06-07T21:06:39.821Z,28.60
2018-06-07T21:09:09.039Z,28.87
2018-06-07T21:11:37.217Z,28.80
2018-06-07T21:14:05.572Z,30.67
2018-06-07T21:16:33.811Z,30.37
2018-06-07T21:19:01.987Z,32.00
2018-06-07T21:21:29.923Z,32.33
2018-06-07T21:23:58.135Z,34.10
2018-06-07T21:26:26.337Z,37.50
2018-06-07T21:28:55.471Z,34.27
2018-06-07T21:31:23.660Z,36.40
2018-06-07T21:33:51.844Z,36.50
2018-06-07T21:36:19.788Z,35.70
2018-06-07T21:38:47.975Z,38.37
2018-06-07T21:41:16.391Z,37.03
2018-06-07T21:43:44.585Z,35.97
2018-06-07T21:46:12.761Z,39.50
2018-06-07T21:48:40.927Z,37.50
2018-06-07T21:51:09.100Z,37.10
2018-06-07T21:53:37.281Z,37.83
2018-06-07T21:56:05.448Z,34.83
2018-06-07T21:58:33.696Z,37.33
2018-06-07T22:01:01.879Z,36.17
2018-06-07T22:03:30.085Z,36.13
2018-06-07T22:05:58.260Z,35.33
2018-06-07T22:08:26.456Z,40.47
2018-06-07T22:10:54.640Z,34.13
2018-06-07T22:13:22.593Z,31.20
2018-06-07T22:15:50.784Z,32.53
2018-06-07T22:18:18.959Z,32.57
2018-06-07T22:20:46.907Z,32.93
2018-06-07T22:23:15.095Z,31.47
2018-06-07T22:25:43.292Z,32.60
2018-06-07T22:28:11.916Z,32.10
2018-06-07T22:30:40.096Z,31.77
2018-06-07T22:33:08.276Z,32.00
2018-06-07T22:35:36.452Z,34.97
2018-06-07T22:38:04.635Z,32.10
2018-06-07T22:40:32.836Z,32.63
2018-06-07T22:43:01.012Z,34.67
2018-06-07T22:45:29.193Z,35.47
2018-06-07T22:47:57.391Z,30.30
2018-06-07T22:50:25.824Z,34.80
2018-06-07T22:52:54.889Z,33.50
2018-06-07T22:55:23.081Z,35.97
2018-06-07T22:57:51.263Z,35.97
2018-06-07T23:00:19.427Z,36.30
2018-06-07T23:02:52.109Z,36.73
2018-06-07T23:05:20.411Z,37.87
2018-06-07T23:07:48.637Z,35.40
2018-06-07T23:10:16.830Z,35.77
2018-06-07T23:12:45.029Z,37.10
2018-06-07T23:15:13.217Z,35.83
2018-06-07T23:17:41.403Z,35.30
2018-06-07T23:20:09.588Z,33.30
2018-06-07T23:22:37.764Z,36.60
2018-06-07T23:25:05.932Z,37.37
2018-06-07T23:27:34.097Z,33.50
2018-06-07T23:30:02.275Z,36.67
2018-06-07T23:32:30.461Z,31.67
2018-06-07T23:34:58.620Z,34.60
2018-06-07T23:37:26.799Z,31.30
2018-06-07T23:39:55.016Z,32.77
2018-06-07T23:42:23.209Z,35.00
2018-06-07T23:44:51.164Z,34.70
2018-06-07T23:47:19.381Z,32.80
2018-06-07T23:49:47.549Z,34.80
2018-06-07T23:52:15.712Z,34.10
2018-06-07T23:54:43.901Z,34.27
2018-06-07T23:57:12.079Z,36.97
2018-06-07T23:59:40.262Z,34.27
